sensor_id;sensor_type;location;lat;lon;timestamp;temperature;humidity
10411;DHT22;5251;52.112;8.606;2023-02-08T00:00:00;0.20;98.50
10411;DHT22;5251;52.112;8.606;2023-02-08T00:02:25;0.10;98.50
10411;DHT22;5251;52.112;8.606;2023-02-08T00:04:51;0.10;98.50
10411;DHT22;5251;52.112;8.606;2023-02-08T00:07:16;0.10;98.50
10411;DHT22;5251;52.112;8.606;2023-02-08T00:09:42;0.10;98.50
10411;DHT22;5251;52.112;8.606;2023-02-08T00:12:07;0.10;98.50
10411;DHT22;5251;52.112;8.606;2023-02-08T00:14:33;0.10;98.60
10411;DHT22;5251;52.112;8.606;2023-02-08T00:16:58;0.00;98.90
10411;DHT22;5251;52.112;8.606;2023-02-08T00:19:24;0.00;98.60
10411;DHT22;5251;52.112;8.606;2023-02-08T00:21:50;0.00;98.60
10411;DHT22;5251;52.112;8.606;2023-02-08T00:24:15;0.00;98.60
10411;DHT22;5251;52.112;8.606;2023-02-08T00:26:41;0.00;98.60
10411;DHT22;5251;52.112;8.606;2023-02-08T00:29:06;-0.10;98.60
10411;DHT22;5251;52.112;8.606;2023-02-08T00:31:32;-0.10;98.60
10411;DHT22;5251;52.112;8.606;2023-02-08T00:33:58;-0.10;98.60
10411;DHT22;5251;52.112;8.606;2023-02-08T00:36:23;-0.10;98.70
10411;DHT22;5251;52.112;8.606;2023-02-08T00:38:49;-0.10;98.70
10411;DHT22;5251;52.112;8.606;2023-02-08T00:41:14;-0.10;98.70
10411;DHT22;5251;52.112;8.606;2023-02-08T00:43:40;-0.20;99.00
10411;DHT22;5251;52.112;8.606;2023-02-08T00:46:06;-0.20;98.70
10411;DHT22;5251;52.112;8.606;2023-02-08T00:48:32;-0.20;98.70
10411;DHT22;5251;52.112;8.606;2023-02-08T00:51:03;-0.20;98.70
10411;DHT22;5251;52.112;8.606;2023-02-08T00:53:30;-0.20;98.70
10411;DHT22;5251;52.112;8.606;2023-02-08T00:55:56;-0.20;98.70
10411;DHT22;5251;52.112;8.606;2023-02-08T00:58:22;-0.20;98.70
10411;DHT22;5251;52.112;8.606;2023-02-08T01:00:51;-0.20;98.70
10411;DHT22;5251;52.112;8.606;2023-02-08T01:03:19;-0.30;98.80
10411;DHT22;5251;52.112;8.606;2023-02-08T01:05:44;-0.30;98.80
10411;DHT22;5251;52.112;8.606;2023-02-08T01:08:10;-0.30;98.90
10411;DHT22;5251;52.112;8.606;2023-02-08T01:10:35;-0.30;98.90
10411;DHT22;5251;52.112;8.606;2023-02-08T01:13:01;-0.30;98.90
10411;DHT22;5251;52.112;8.606;2023-02-08T01:15:27;-0.30;99.00
10411;DHT22;5251;52.112;8.606;2023-02-08T01:17:56;-0.30;99.00
10411;DHT22;5251;52.112;8.606;2023-02-08T01:20:23;-0.30;99.10
10411;DHT22;5251;52.112;8.606;2023-02-08T01:22:49;-0.20;99.20
10411;DHT22;5251;52.112;8.606;2023-02-08T01:25:14;-0.20;99.10
10411;DHT22;5251;52.112;8.606;2023-02-08T01:27:40;-0.20;99.10
10411;DHT22;5251;52.112;8.606;2023-02-08T01:30:06;-0.20;99.10
10411;DHT22;5251;52.112;8.606;2023-02-08T01:32:32;-0.20;99.10
10411;DHT22;5251;52.112;8.606;2023-02-08T01:34:58;-0.20;99.50
10411;DHT22;5251;52.112;8.606;2023-02-08T01:37:24;-0.30;99.10
10411;DHT22;5251;52.112;8.606;2023-02-08T01:39:49;-0.20;99.10
10411;DHT22;5251;52.112;8.606;2023-02-08T01:42:17;-0.20;99.10
10411;DHT22;5251;52.112;8.606;2023-02-08T01:47:37;-0.30;99.10
10411;DHT22;5251;52.112;8.606;2023-02-08T01:50:03;-0.20;99.10
10411;DHT22;5251;52.112;8.606;2023-02-08T01:52:29;-0.30;99.00
10411;DHT22;5251;52.112;8.606;2023-02-08T01:54:59;-0.30;99.00
10411;DHT22;5251;52.112;8.606;2023-02-08T01:57:27;-0.30;98.90
10411;DHT22;5251;52.112;8.606;2023-02-08T02:00:00;-0.30;98.90
10411;DHT22;5251;52.112;8.606;2023-02-08T02:02:26;-0.30;98.90
10411;DHT22;5251;52.112;8.606;2023-02-08T02:04:52;-0.30;98.90
10411;DHT22;5251;52.112;8.606;2023-02-08T02:07:20;-0.30;99.00
10411;DHT22;5251;52.112;8.606;2023-02-08T02:09:52;-0.30;99.00
10411;DHT22;5251;52.112;8.606;2023-02-08T02:12:20;-0.30;99.00
10411;DHT22;5251;52.112;8.606;2023-02-08T02:14:46;-0.30;99.00
10411;DHT22;5251;52.112;8.606;2023-02-08T02:17:12;-0.40;99.00
10411;DHT22;5251;52.112;8.606;2023-02-08T02:20:01;-0.40;99.10
10411;DHT22;5251;52.112;8.606;2023-02-08T02:33:55;-0.40;99.10
10411;DHT22;5251;52.112;8.606;2023-02-08T02:47:44;-0.40;99.10
10411;DHT22;5251;52.112;8.606;2023-02-08T02:55:24;-0.40;99.00
10411;DHT22;5251;52.112;8.606;2023-02-08T02:57:53;-0.40;99.00
10411;DHT22;5251;52.112;8.606;2023-02-08T03:00:25;-0.40;99.00
10411;DHT22;5251;52.112;8.606;2023-02-08T03:02:52;-0.40;98.90
10411;DHT22;5251;52.112;8.606;2023-02-08T03:05:18;-0.30;99.00
10411;DHT22;5251;52.112;8.606;2023-02-08T03:10:51;-0.40;98.90
10411;DHT22;5251;52.112;8.606;2023-02-08T03:16:10;-0.40;98.90
10411;DHT22;5251;52.112;8.606;2023-02-08T03:24:04;-0.40;98.80
10411;DHT22;5251;52.112;8.606;2023-02-08T03:26:38;-0.40;98.80
10411;DHT22;5251;52.112;8.606;2023-02-08T03:29:14;-0.40;98.70
10411;DHT22;5251;52.112;8.606;2023-02-08T03:31:46;-0.30;98.80
10411;DHT22;5251;52.112;8.606;2023-02-08T03:34:20;-0.30;98.80
10411;DHT22;5251;52.112;8.606;2023-02-08T03:36:57;-0.30;98.60
10411;DHT22;5251;52.112;8.606;2023-02-08T03:39:27;-0.30;98.60
10411;DHT22;5251;52.112;8.606;2023-02-08T03:42:00;-0.30;98.60
10411;DHT22;5251;52.112;8.606;2023-02-08T03:47:00;-0.40;98.60
10411;DHT22;5251;52.112;8.606;2023-02-08T03:49:31;-0.40;98.60
10411;DHT22;5251;52.112;8.606;2023-02-08T03:52:00;-0.40;98.60
10411;DHT22;5251;52.112;8.606;2023-02-08T03:54:30;-0.40;98.60
10411;DHT22;5251;52.112;8.606;2023-02-08T03:59:38;-0.30;98.60
10411;DHT22;5251;52.112;8.606;2023-02-08T04:02:06;-0.30;98.60
10411;DHT22;5251;52.112;8.606;2023-02-08T04:04:36;-0.30;98.60
10411;DHT22;5251;52.112;8.606;2023-02-08T04:07:02;-0.30;98.60
10411;DHT22;5251;52.112;8.606;2023-02-08T04:09:28;-0.30;98.60
10411;DHT22;5251;52.112;8.606;2023-02-08T04:11:54;-0.30;98.60
10411;DHT22;5251;52.112;8.606;2023-02-08T04:14:19;-0.30;98.60
10411;DHT22;5251;52.112;8.606;2023-02-08T04:16:45;-0.30;98.60
10411;DHT22;5251;52.112;8.606;2023-02-08T04:19:10;-0.30;98.60
10411;DHT22;5251;52.112;8.606;2023-02-08T04:21:36;-0.30;98.60
10411;DHT22;5251;52.112;8.606;2023-02-08T04:24:02;-0.30;98.60
10411;DHT22;5251;52.112;8.606;2023-02-08T04:26:27;0.00;98.60
10411;DHT22;5251;52.112;8.606;2023-02-08T04:28:53;-0.30;98.50
10411;DHT22;5251;52.112;8.606;2023-02-08T04:31:18;-0.30;98.50
10411;DHT22;5251;52.112;8.606;2023-02-08T04:33:44;-0.30;98.50
10411;DHT22;5251;52.112;8.606;2023-02-08T04:36:09;-0.30;98.50
10411;DHT22;5251;52.112;8.606;2023-02-08T04:38:35;-0.30;98.40
10411;DHT22;5251;52.112;8.606;2023-02-08T04:41:01;-0.30;98.40
10411;DHT22;5251;52.112;8.606;2023-02-08T04:43:26;-0.30;98.40
10411;DHT22;5251;52.112;8.606;2023-02-08T04:45:52;-0.30;98.30
10411;DHT22;5251;52.112;8.606;2023-02-08T04:48:18;-0.30;98.30
10411;DHT22;5251;52.112;8.606;2023-02-08T04:50:44;-0.30;98.20
10411;DHT22;5251;52.112;8.606;2023-02-08T04:53:10;-0.30;98.20
10411;DHT22;5251;52.112;8.606;2023-02-08T04:55:35;-0.40;98.10
10411;DHT22;5251;52.112;8.606;2023-02-08T04:58:01;-0.40;98.10
10411;DHT22;5251;52.112;8.606;2023-02-08T05:00:27;-0.40;98.10
10411;DHT22;5251;52.112;8.606;2023-02-08T05:02:57;-0.40;98.00
10411;DHT22;5251;52.112;8.606;2023-02-08T05:05:23;-0.40;98.00
10411;DHT22;5251;52.112;8.606;2023-02-08T05:07:50;-0.50;97.90
10411;DHT22;5251;52.112;8.606;2023-02-08T05:10:16;-0.50;97.90
10411;DHT22;5251;52.112;8.606;2023-02-08T05:12:42;-0.50;97.90
10411;DHT22;5251;52.112;8.606;2023-02-08T05:15:08;-0.60;98.20
10411;DHT22;5251;52.112;8.606;2023-02-08T05:17:33;-0.60;97.90
10411;DHT22;5251;52.112;8.606;2023-02-08T05:19:59;-0.60;97.90
10411;DHT22;5251;52.112;8.606;2023-02-08T05:22:25;-0.60;98.00
10411;DHT22;5251;52.112;8.606;2023-02-08T05:24:50;-0.60;97.90
10411;DHT22;5251;52.112;8.606;2023-02-08T05:27:16;-0.70;97.90
10411;DHT22;5251;52.112;8.606;2023-02-08T05:29:41;-0.70;97.80
10411;DHT22;5251;52.112;8.606;2023-02-08T05:32:08;-0.70;97.80
10411;DHT22;5251;52.112;8.606;2023-02-08T05:34:35;-0.70;97.80
10411;DHT22;5251;52.112;8.606;2023-02-08T05:37:01;-0.80;97.80
10411;DHT22;5251;52.112;8.606;2023-02-08T05:39:26;-0.80;97.90
10411;DHT22;5251;52.112;8.606;2023-02-08T05:41:52;-0.80;97.90
10411;DHT22;5251;52.112;8.606;2023-02-08T05:44:17;-0.80;97.90
10411;DHT22;5251;52.112;8.606;2023-02-08T05:46:43;-0.80;97.90
10411;DHT22;5251;52.112;8.606;2023-02-08T05:49:09;-0.90;97.90
10411;DHT22;5251;52.112;8.606;2023-02-08T05:51:34;-0.90;97.90
10411;DHT22;5251;52.112;8.606;2023-02-08T05:54:00;-0.90;97.90
10411;DHT22;5251;52.112;8.606;2023-02-08T05:56:25;-1.00;97.90
10411;DHT22;5251;52.112;8.606;2023-02-08T05:58:51;-1.00;97.90
10411;DHT22;5251;52.112;8.606;2023-02-08T06:01:17;-1.00;98.00
10411;DHT22;5251;52.112;8.606;2023-02-08T06:03:42;-1.00;97.90
10411;DHT22;5251;52.112;8.606;2023-02-08T06:06:08;-1.00;98.00
10411;DHT22;5251;52.112;8.606;2023-02-08T06:08:37;-1.10;98.00
10411;DHT22;5251;52.112;8.606;2023-02-08T06:11:03;-1.10;97.90
10411;DHT22;5251;52.112;8.606;2023-02-08T06:13:29;-1.10;98.00
10411;DHT22;5251;52.112;8.606;2023-02-08T06:15:55;-1.20;97.90
10411;DHT22;5251;52.112;8.606;2023-02-08T06:18:21;-1.10;98.00
10411;DHT22;5251;52.112;8.606;2023-02-08T06:20:47;-1.20;97.90
10411;DHT22;5251;52.112;8.606;2023-02-08T06:23:12;-1.20;98.00
10411;DHT22;5251;52.112;8.606;2023-02-08T06:25:38;-1.20;98.00
10411;DHT22;5251;52.112;8.606;2023-02-08T06:28:04;-1.20;98.00
10411;DHT22;5251;52.112;8.606;2023-02-08T06:30:31;-1.20;98.00
10411;DHT22;5251;52.112;8.606;2023-02-08T06:32:56;-1.20;98.10
10411;DHT22;5251;52.112;8.606;2023-02-08T06:35:22;-1.30;98.10
10411;DHT22;5251;52.112;8.606;2023-02-08T06:37:47;-1.30;98.10
10411;DHT22;5251;52.112;8.606;2023-02-08T06:40:13;-1.30;98.10
10411;DHT22;5251;52.112;8.606;2023-02-08T06:42:38;-1.30;98.20
10411;DHT22;5251;52.112;8.606;2023-02-08T06:45:05;-1.30;98.20
10411;DHT22;5251;52.112;8.606;2023-02-08T06:47:33;-1.30;98.20
10411;DHT22;5251;52.112;8.606;2023-02-08T06:49:59;-1.30;98.20
10411;DHT22;5251;52.112;8.606;2023-02-08T06:52:24;-1.30;98.20
10411;DHT22;5251;52.112;8.606;2023-02-08T06:54:50;-1.30;98.30
10411;DHT22;5251;52.112;8.606;2023-02-08T06:57:16;-1.30;98.40
10411;DHT22;5251;52.112;8.606;2023-02-08T06:59:41;-1.30;98.50
10411;DHT22;5251;52.112;8.606;2023-02-08T07:02:15;-1.30;98.60
10411;DHT22;5251;52.112;8.606;2023-02-08T07:04:41;-1.30;98.60
10411;DHT22;5251;52.112;8.606;2023-02-08T07:07:08;-1.30;98.60
10411;DHT22;5251;52.112;8.606;2023-02-08T07:09:34;-1.30;98.60
10411;DHT22;5251;52.112;8.606;2023-02-08T07:12:00;-1.20;98.70
10411;DHT22;5251;52.112;8.606;2023-02-08T07:14:35;-1.20;98.60
10411;DHT22;5251;52.112;8.606;2023-02-08T07:17:02;-1.20;98.60
10411;DHT22;5251;52.112;8.606;2023-02-08T07:19:30;-1.20;98.60
10411;DHT22;5251;52.112;8.606;2023-02-08T07:21:56;-1.10;98.60
10411;DHT22;5251;52.112;8.606;2023-02-08T07:24:22;-1.10;98.60
10411;DHT22;5251;52.112;8.606;2023-02-08T07:26:48;-1.10;98.60
10411;DHT22;5251;52.112;8.606;2023-02-08T07:29:14;-1.10;98.60
10411;DHT22;5251;52.112;8.606;2023-02-08T07:31:39;-1.00;98.60
10411;DHT22;5251;52.112;8.606;2023-02-08T07:34:05;-1.00;98.60
10411;DHT22;5251;52.112;8.606;2023-02-08T07:36:30;-1.00;98.60
10411;DHT22;5251;52.112;8.606;2023-02-08T07:38:56;-0.90;98.60
10411;DHT22;5251;52.112;8.606;2023-02-08T07:41:22;-0.90;98.60
10411;DHT22;5251;52.112;8.606;2023-02-08T07:43:47;-0.90;98.50
10411;DHT22;5251;52.112;8.606;2023-02-08T07:46:20;-0.80;98.40
10411;DHT22;5251;52.112;8.606;2023-02-08T07:48:46;-0.80;98.40
10411;DHT22;5251;52.112;8.606;2023-02-08T07:51:14;-0.80;98.40
10411;DHT22;5251;52.112;8.606;2023-02-08T07:53:40;-0.70;98.50
10411;DHT22;5251;52.112;8.606;2023-02-08T07:56:06;-0.70;98.40
10411;DHT22;5251;52.112;8.606;2023-02-08T07:58:31;-0.60;98.50
10411;DHT22;5251;52.112;8.606;2023-02-08T08:00:58;-0.60;98.50
10411;DHT22;5251;52.112;8.606;2023-02-08T08:03:24;-0.60;98.50
10411;DHT22;5251;52.112;8.606;2023-02-08T08:05:49;-0.50;98.50
10411;DHT22;5251;52.112;8.606;2023-02-08T08:08:16;-0.50;98.40
10411;DHT22;5251;52.112;8.606;2023-02-08T08:10:41;-0.40;98.40
10411;DHT22;5251;52.112;8.606;2023-02-08T08:13:07;-0.40;98.40
10411;DHT22;5251;52.112;8.606;2023-02-08T08:15:33;-0.30;98.80
10411;DHT22;5251;52.112;8.606;2023-02-08T08:17:59;-0.30;98.50
10411;DHT22;5251;52.112;8.606;2023-02-08T08:20:25;-0.20;98.60
10411;DHT22;5251;52.112;8.606;2023-02-08T08:22:50;-0.20;98.60
10411;DHT22;5251;52.112;8.606;2023-02-08T08:25:16;-0.10;98.60
10411;DHT22;5251;52.112;8.606;2023-02-08T08:27:42;0.00;98.70
10411;DHT22;5251;52.112;8.606;2023-02-08T08:30:11;0.00;98.80
10411;DHT22;5251;52.112;8.606;2023-02-08T08:32:37;0.10;98.80
10411;DHT22;5251;52.112;8.606;2023-02-08T08:35:04;0.20;98.90
10411;DHT22;5251;52.112;8.606;2023-02-08T08:37:30;0.30;98.90
10411;DHT22;5251;52.112;8.606;2023-02-08T08:39:55;0.30;98.90
10411;DHT22;5251;52.112;8.606;2023-02-08T08:42:21;0.40;99.00
10411;DHT22;5251;52.112;8.606;2023-02-08T08:44:47;0.50;99.00
10411;DHT22;5251;52.112;8.606;2023-02-08T08:47:12;0.50;99.00
10411;DHT22;5251;52.112;8.606;2023-02-08T08:49:38;0.60;98.90
10411;DHT22;5251;52.112;8.606;2023-02-08T08:52:04;0.70;98.80
10411;DHT22;5251;52.112;8.606;2023-02-08T08:54:32;0.80;98.80
10411;DHT22;5251;52.112;8.606;2023-02-08T08:56:58;0.90;98.70
10411;DHT22;5251;52.112;8.606;2023-02-08T08:59:24;0.90;98.60
10411;DHT22;5251;52.112;8.606;2023-02-08T09:01:49;1.00;98.50
10411;DHT22;5251;52.112;8.606;2023-02-08T09:04:15;1.10;98.50
10411;DHT22;5251;52.112;8.606;2023-02-08T09:06:40;1.20;98.50
10411;DHT22;5251;52.112;8.606;2023-02-08T09:09:06;1.20;98.30
10411;DHT22;5251;52.112;8.606;2023-02-08T09:11:32;1.30;98.30
10411;DHT22;5251;52.112;8.606;2023-02-08T09:14:01;1.40;98.60
10411;DHT22;5251;52.112;8.606;2023-02-08T09:16:26;1.50;98.40
10411;DHT22;5251;52.112;8.606;2023-02-08T09:18:52;1.50;97.90
10411;DHT22;5251;52.112;8.606;2023-02-08T09:21:20;1.60;98.00
10411;DHT22;5251;52.112;8.606;2023-02-08T09:23:46;1.70;98.30
10411;DHT22;5251;52.112;8.606;2023-02-08T09:26:13;1.70;97.70
10411;DHT22;5251;52.112;8.606;2023-02-08T09:28:39;1.80;98.00
10411;DHT22;5251;52.112;8.606;2023-02-08T09:31:21;1.80;97.60
10411;DHT22;5251;52.112;8.606;2023-02-08T09:33:48;1.90;97.50
10411;DHT22;5251;52.112;8.606;2023-02-08T09:36:14;2.00;97.30
10411;DHT22;5251;52.112;8.606;2023-02-08T09:38:41;2.00;97.30
10411;DHT22;5251;52.112;8.606;2023-02-08T09:46:37;2.20;97.20
10411;DHT22;5251;52.112;8.606;2023-02-08T09:49:08;2.30;97.10
10411;DHT22;5251;52.112;8.606;2023-02-08T09:51:42;2.30;97.00
10411;DHT22;5251;52.112;8.606;2023-02-08T09:54:45;2.40;96.90
10411;DHT22;5251;52.112;8.606;2023-02-08T09:57:15;2.40;96.70
10411;DHT22;5251;52.112;8.606;2023-02-08T09:59:51;2.50;97.00
10411;DHT22;5251;52.112;8.606;2023-02-08T10:02:24;2.50;96.40
10411;DHT22;5251;52.112;8.606;2023-02-08T10:05:11;2.60;96.40
10411;DHT22;5251;52.112;8.606;2023-02-08T10:07:39;2.60;96.10
10411;DHT22;5251;52.112;8.606;2023-02-08T10:10:11;2.70;96.10
10411;DHT22;5251;52.112;8.606;2023-02-08T10:12:53;2.80;96.10
10411;DHT22;5251;52.112;8.606;2023-02-08T10:18:27;2.90;95.90
10411;DHT22;5251;52.112;8.606;2023-02-08T10:26:31;3.00;96.00
10411;DHT22;5251;52.112;8.606;2023-02-08T10:29:20;3.10;96.00
10411;DHT22;5251;52.112;8.606;2023-02-08T10:35:04;3.10;95.90
10411;DHT22;5251;52.112;8.606;2023-02-08T10:37:32;3.20;95.80
10411;DHT22;5251;52.112;8.606;2023-02-08T10:42:32;3.30;95.40
10411;DHT22;5251;52.112;8.606;2023-02-08T10:45:21;3.40;95.40
10411;DHT22;5251;52.112;8.606;2023-02-08T10:48:00;3.40;95.50
10411;DHT22;5251;52.112;8.606;2023-02-08T10:50:34;3.50;95.50
10411;DHT22;5251;52.112;8.606;2023-02-08T10:53:02;3.50;95.40
10411;DHT22;5251;52.112;8.606;2023-02-08T10:55:29;3.60;95.20
10411;DHT22;5251;52.112;8.606;2023-02-08T10:57:58;3.60;95.10
10411;DHT22;5251;52.112;8.606;2023-02-08T11:00:30;3.70;95.10
10411;DHT22;5251;52.112;8.606;2023-02-08T11:02:59;3.70;95.10
10411;DHT22;5251;52.112;8.606;2023-02-08T11:05:33;3.80;95.00
10411;DHT22;5251;52.112;8.606;2023-02-08T11:08:13;3.80;95.00
10411;DHT22;5251;52.112;8.606;2023-02-08T11:10:43;3.90;95.20
10411;DHT22;5251;52.112;8.606;2023-02-08T11:15:50;4.00;95.00
10411;DHT22;5251;52.112;8.606;2023-02-08T11:18:21;4.10;94.50
10411;DHT22;5251;52.112;8.606;2023-02-08T11:20:51;4.20;94.40
10411;DHT22;5251;52.112;8.606;2023-02-08T11:23:23;4.20;94.30
10411;DHT22;5251;52.112;8.606;2023-02-08T11:25:49;4.20;94.20
10411;DHT22;5251;52.112;8.606;2023-02-08T11:28:28;4.40;94.40
10411;DHT22;5251;52.112;8.606;2023-02-08T11:31:02;4.40;93.90
10411;DHT22;5251;52.112;8.606;2023-02-08T11:33:32;4.50;92.80
10411;DHT22;5251;52.112;8.606;2023-02-08T11:36:06;4.60;92.80
10411;DHT22;5251;52.112;8.606;2023-02-08T11:38:34;4.60;92.40
10411;DHT22;5251;52.112;8.606;2023-02-08T11:41:03;4.70;91.70
10411;DHT22;5251;52.112;8.606;2023-02-08T11:43:32;4.80;91.80
10411;DHT22;5251;52.112;8.606;2023-02-08T11:46:00;4.90;91.80
10411;DHT22;5251;52.112;8.606;2023-02-08T11:51:08;5.10;91.90
10411;DHT22;5251;52.112;8.606;2023-02-08T11:53:36;5.20;92.30
10411;DHT22;5251;52.112;8.606;2023-02-08T11:56:19;5.30;91.70
10411;DHT22;5251;52.112;8.606;2023-02-08T12:01:29;5.40;91.40
10411;DHT22;5251;52.112;8.606;2023-02-08T12:03:57;5.50;91.40
10411;DHT22;5251;52.112;8.606;2023-02-08T12:06:40;5.50;91.10
10411;DHT22;5251;52.112;8.606;2023-02-08T12:11:43;5.60;90.60
10411;DHT22;5251;52.112;8.606;2023-02-08T12:22:39;5.90;88.80
10411;DHT22;5251;52.112;8.606;2023-02-08T12:27:55;6.00;86.60
10411;DHT22;5251;52.112;8.606;2023-02-08T12:41:55;6.30;87.10
10411;DHT22;5251;52.112;8.606;2023-02-08T12:53:16;6.50;86.60
10411;DHT22;5251;52.112;8.606;2023-02-08T12:55:45;6.60;85.70
10411;DHT22;5251;52.112;8.606;2023-02-08T13:01:00;6.70;84.40
10411;DHT22;5251;52.112;8.606;2023-02-08T13:06:17;6.80;85.00
10411;DHT22;5251;52.112;8.606;2023-02-08T13:09:10;6.80;84.70
10411;DHT22;5251;52.112;8.606;2023-02-08T13:11:48;6.80;84.30
10411;DHT22;5251;52.112;8.606;2023-02-08T13:16:51;6.90;84.00
10411;DHT22;5251;52.112;8.606;2023-02-08T13:21:43;6.90;82.60
10411;DHT22;5251;52.112;8.606;2023-02-08T13:24:33;6.90;83.20
10411;DHT22;5251;52.112;8.606;2023-02-08T13:26:59;6.90;83.00
10411;DHT22;5251;52.112;8.606;2023-02-08T13:29:25;6.90;83.00
10411;DHT22;5251;52.112;8.606;2023-02-08T13:35:04;7.00;82.70
10411;DHT22;5251;52.112;8.606;2023-02-08T13:37:32;7.00;82.50
10411;DHT22;5251;52.112;8.606;2023-02-08T13:42:41;7.00;81.10
10411;DHT22;5251;52.112;8.606;2023-02-08T13:48:07;7.00;80.40
10411;DHT22;5251;52.112;8.606;2023-02-08T13:50:53;7.00;80.80
10411;DHT22;5251;52.112;8.606;2023-02-08T13:56:08;7.00;81.70
10411;DHT22;5251;52.112;8.606;2023-02-08T14:01:13;7.00;80.60
10411;DHT22;5251;52.112;8.606;2023-02-08T14:03:39;7.10;79.70
10411;DHT22;5251;52.112;8.606;2023-02-08T14:11:28;6.90;80.20
10411;DHT22;5251;52.112;8.606;2023-02-08T14:14:23;7.00;78.90
10411;DHT22;5251;52.112;8.606;2023-02-08T14:17:10;7.00;79.10
10411;DHT22;5251;52.112;8.606;2023-02-08T14:19:41;7.00;78.70
10411;DHT22;5251;52.112;8.606;2023-02-08T14:24:41;7.00;78.00
10411;DHT22;5251;52.112;8.606;2023-02-08T14:27:24;7.00;76.60
10411;DHT22;5251;52.112;8.606;2023-02-08T14:32:48;7.00;74.70
10411;DHT22;5251;52.112;8.606;2023-02-08T14:37:43;6.90;74.00
10411;DHT22;5251;52.112;8.606;2023-02-08T14:42:55;6.90;73.30
10411;DHT22;5251;52.112;8.606;2023-02-08T14:45:36;7.00;73.30
10411;DHT22;5251;52.112;8.606;2023-02-08T14:48:27;6.90;73.40
10411;DHT22;5251;52.112;8.606;2023-02-08T14:53:53;6.90;74.40
10411;DHT22;5251;52.112;8.606;2023-02-08T14:56:30;6.90;73.70
10411;DHT22;5251;52.112;8.606;2023-02-08T14:59:05;6.80;73.80
10411;DHT22;5251;52.112;8.606;2023-02-08T15:01:45;6.80;74.30
10411;DHT22;5251;52.112;8.606;2023-02-08T15:04:13;6.80;73.90
10411;DHT22;5251;52.112;8.606;2023-02-08T15:06:43;6.80;74.70
10411;DHT22;5251;52.112;8.606;2023-02-08T15:09:24;6.80;75.10
10411;DHT22;5251;52.112;8.606;2023-02-08T15:14:41;6.70;74.30
10411;DHT22;5251;52.112;8.606;2023-02-08T15:17:18;6.70;73.40
10411;DHT22;5251;52.112;8.606;2023-02-08T15:19:45;6.70;73.80
10411;DHT22;5251;52.112;8.606;2023-02-08T15:24:56;6.60;74.90
10411;DHT22;5251;52.112;8.606;2023-02-08T15:27:29;6.60;75.50
10411;DHT22;5251;52.112;8.606;2023-02-08T15:29:55;6.60;74.50
10411;DHT22;5251;52.112;8.606;2023-02-08T15:32:23;6.50;74.60
10411;DHT22;5251;52.112;8.606;2023-02-08T15:34:56;6.50;74.20
10411;DHT22;5251;52.112;8.606;2023-02-08T15:37:22;6.50;74.90
10411;DHT22;5251;52.112;8.606;2023-02-08T15:39:54;6.40;75.20
10411;DHT22;5251;52.112;8.606;2023-02-08T15:42:26;6.30;75.10
10411;DHT22;5251;52.112;8.606;2023-02-08T15:44:53;6.30;75.40
10411;DHT22;5251;52.112;8.606;2023-02-08T15:47:34;6.20;75.40
10411;DHT22;5251;52.112;8.606;2023-02-08T15:50:02;6.20;75.70
10411;DHT22;5251;52.112;8.606;2023-02-08T15:52:32;6.20;75.50
10411;DHT22;5251;52.112;8.606;2023-02-08T15:54:59;6.10;75.10
10411;DHT22;5251;52.112;8.606;2023-02-08T16:00:35;6.00;75.10
10411;DHT22;5251;52.112;8.606;2023-02-08T16:03:16;5.90;74.90
10411;DHT22;5251;52.112;8.606;2023-02-08T16:05:51;5.90;75.10
10411;DHT22;5251;52.112;8.606;2023-02-08T16:08:24;5.80;74.80
10411;DHT22;5251;52.112;8.606;2023-02-08T16:11:03;5.90;75.30
10411;DHT22;5251;52.112;8.606;2023-02-08T16:13:33;5.70;74.90
10411;DHT22;5251;52.112;8.606;2023-02-08T16:16:34;5.60;75.70
10411;DHT22;5251;52.112;8.606;2023-02-08T16:19:18;5.60;75.30
10411;DHT22;5251;52.112;8.606;2023-02-08T16:21:44;5.50;75.60
10411;DHT22;5251;52.112;8.606;2023-02-08T16:27:02;5.30;75.40
10411;DHT22;5251;52.112;8.606;2023-02-08T16:29:34;5.30;75.10
10411;DHT22;5251;52.112;8.606;2023-02-08T16:32:06;5.20;75.30
10411;DHT22;5251;52.112;8.606;2023-02-08T16:34:36;5.10;75.10
10411;DHT22;5251;52.112;8.606;2023-02-08T16:37:05;5.10;74.40
10411;DHT22;5251;52.112;8.606;2023-02-08T16:39:52;5.00;74.90
10411;DHT22;5251;52.112;8.606;2023-02-08T16:42:27;4.90;74.60
10411;DHT22;5251;52.112;8.606;2023-02-08T16:50:11;4.70;75.00
10411;DHT22;5251;52.112;8.606;2023-02-08T16:52:36;4.70;75.10
10411;DHT22;5251;52.112;8.606;2023-02-08T16:55:03;4.70;75.00
10411;DHT22;5251;52.112;8.606;2023-02-08T16:57:43;4.60;75.40
10411;DHT22;5251;52.112;8.606;2023-02-08T17:00:33;4.50;75.70
10411;DHT22;5251;52.112;8.606;2023-02-08T17:02:59;4.50;76.10
10411;DHT22;5251;52.112;8.606;2023-02-08T17:05:30;4.40;76.00
10411;DHT22;5251;52.112;8.606;2023-02-08T17:07:57;4.30;76.10
10411;DHT22;5251;52.112;8.606;2023-02-08T17:10:28;4.30;76.10
10411;DHT22;5251;52.112;8.606;2023-02-08T17:12:55;4.20;76.30
10411;DHT22;5251;52.112;8.606;2023-02-08T17:15:21;4.20;76.60
10411;DHT22;5251;52.112;8.606;2023-02-08T17:17:49;4.10;76.40
10411;DHT22;5251;52.112;8.606;2023-02-08T17:20:27;4.10;76.70
10411;DHT22;5251;52.112;8.606;2023-02-08T17:22:54;4.00;76.80
10411;DHT22;5251;52.112;8.606;2023-02-08T17:25:21;4.00;76.90
10411;DHT22;5251;52.112;8.606;2023-02-08T17:27:49;3.90;76.80
10411;DHT22;5251;52.112;8.606;2023-02-08T17:30:36;3.90;77.20
10411;DHT22;5251;52.112;8.606;2023-02-08T17:33:03;3.80;77.40
10411;DHT22;5251;52.112;8.606;2023-02-08T17:35:31;3.80;77.70
10411;DHT22;5251;52.112;8.606;2023-02-08T17:37:58;3.80;78.10
10411;DHT22;5251;52.112;8.606;2023-02-08T17:40:26;3.70;78.80
10411;DHT22;5251;52.112;8.606;2023-02-08T17:42:55;3.70;79.20
10411;DHT22;5251;52.112;8.606;2023-02-08T17:45:21;3.60;78.50
10411;DHT22;5251;52.112;8.606;2023-02-08T17:47:47;3.60;78.80
10411;DHT22;5251;52.112;8.606;2023-02-08T17:50:15;3.60;79.00
10411;DHT22;5251;52.112;8.606;2023-02-08T17:52:41;3.50;79.00
10411;DHT22;5251;52.112;8.606;2023-02-08T17:55:09;3.40;79.10
10411;DHT22;5251;52.112;8.606;2023-02-08T17:57:37;3.40;79.40
10411;DHT22;5251;52.112;8.606;2023-02-08T18:00:14;3.40;79.60
10411;DHT22;5251;52.112;8.606;2023-02-08T18:02:45;3.40;79.70
10411;DHT22;5251;52.112;8.606;2023-02-08T18:05:13;3.30;80.30
10411;DHT22;5251;52.112;8.606;2023-02-08T18:07:38;3.20;80.10
10411;DHT22;5251;52.112;8.606;2023-02-08T18:10:06;3.20;80.10
10411;DHT22;5251;52.112;8.606;2023-02-08T18:12:34;3.20;80.20
10411;DHT22;5251;52.112;8.606;2023-02-08T18:15:00;3.20;80.40
10411;DHT22;5251;52.112;8.606;2023-02-08T18:17:26;3.10;80.60
10411;DHT22;5251;52.112;8.606;2023-02-08T18:19:52;3.10;80.70
10411;DHT22;5251;52.112;8.606;2023-02-08T18:22:17;3.10;80.80
10411;DHT22;5251;52.112;8.606;2023-02-08T18:24:45;3.10;81.10
10411;DHT22;5251;52.112;8.606;2023-02-08T18:27:12;3.10;81.20
10411;DHT22;5251;52.112;8.606;2023-02-08T18:29:38;3.00;81.40
10411;DHT22;5251;52.112;8.606;2023-02-08T18:32:04;3.00;81.50
10411;DHT22;5251;52.112;8.606;2023-02-08T18:34:30;3.00;81.90
10411;DHT22;5251;52.112;8.606;2023-02-08T18:36:57;3.00;82.00
10411;DHT22;5251;52.112;8.606;2023-02-08T18:39:23;3.00;82.00
10411;DHT22;5251;52.112;8.606;2023-02-08T18:41:49;2.90;81.90
10411;DHT22;5251;52.112;8.606;2023-02-08T18:44:16;2.90;82.00
10411;DHT22;5251;52.112;8.606;2023-02-08T18:46:41;2.90;82.10
10411;DHT22;5251;52.112;8.606;2023-02-08T18:49:08;2.90;82.20
10411;DHT22;5251;52.112;8.606;2023-02-08T18:51:33;2.80;82.20
10411;DHT22;5251;52.112;8.606;2023-02-08T18:53:59;2.80;82.30